URRRURKK

Guest
Details From URRR - Rostov Na Donu
To URKK - Pashkovskiy
Flight Number -
Tags Generated
Created
Modified
Stats Distance 136 nm / 252 km
Max Altitude 0 ft / 0 m
Waypoints 2
Social Downloads 3
Likes 0
Share VATSIM

Download

Looking for another format? Having issues loading an existing format? Contact us
Advertisement - Login to hide

Notes

Generated

Route

URRR URKK

ID Type Via Altitude Latitude Longitude Leg Dist Tot Dist Heading (true) Name
O URRR APT - 0 ft / 0 m 47.25036˚ 39.80625˚ - 0 nm - -
O URKK APT - 0 ft / 0 m 45.02906˚ 39.14142˚ 136 nm 136 nm 192° / 191° -

Altitude Profile

Advertisement - Login to hide

URRR

Details ICAO URRR (ROV)
Name Rostov Na Donu
Region Russia
Timezone Europe/Moscow (UTC+3.0)
Stats Elevation 280 ft / 85 m (AMSL)
Location 47.254195° 39.816074°
Runways 3
Magnetic Variation 8.120° E

METAR

URRR 131900Z VRB01MPS 8000 NSC 07/02 Q1018 R22/150060 NOSIG RMK QFE755/1007

Decode

TAF

TAF URRR 131656Z 1318/1418 16005G10MPS 9999 SCT011 TEMPO 1318/1321 21003G08MPS 3100 BR BKN011 TEMPO 1321/1409 0800 -DZ FG OVC002

Decode

Departure Runways

ID Width Length Bearing (true) Bearing (mag) Surface Threshold Offset Overrun Length
04 148 ft / 45 m 8,197 ft / 2,499 m 45.65° 37.53° Concrete 0 ft / 0 m 165 ft / 50 m
04R 245 ft / 75 m 6,393 ft / 1,949 m 45.77° 37.65° Grass 0 ft / 0 m 0 ft / 0 m
08 280 ft / 85 m 4,319 ft / 1,316 m 91.91° 83.79° Grass 0 ft / 0 m 0 ft / 0 m
22 148 ft / 45 m 8,197 ft / 2,499 m 225.67° 217.55° Concrete 0 ft / 0 m 165 ft / 50 m
22L 245 ft / 75 m 6,393 ft / 1,949 m 225.78° 217.66° Grass 0 ft / 0 m 0 ft / 0 m
26 280 ft / 85 m 4,319 ft / 1,316 m 271.92° 263.80° Grass 0 ft / 0 m 0 ft / 0 m

URKK

Details ICAO URKK (KRR)
Name PASHKOVSKIY
Region Russia
Timezone Europe/Moscow (UTC+3.0)
Stats Elevation 118 ft / 36 m (AMSL)
Location 45.034644° 39.170454°
Runways 2
Magnetic Variation 7.355° E

METAR

URKK 131900Z 12001MPS 9000 NSC 03/02 Q1018 R23L/CLRD70 NOSIG RMK QFE760

Decode

TAF

TAF URKK 131655Z 1318/1418 12003G08MPS CAVOK TEMPO 1321/1407 3100 BR SCT011

Decode

Destination Runways

ID Width Length Bearing (true) Bearing (mag) Surface Threshold Offset Overrun Length
05L 160 ft / 49 m 7,177 ft / 2,187 m 52.37° 45.01° Asphalt 0 ft / 0 m 160 ft / 49 m
05R 145 ft / 44 m 9,822 ft / 2,994 m 52.45° 45.09° Concrete 0 ft / 0 m 160 ft / 49 m
23L 145 ft / 44 m 9,822 ft / 2,994 m 232.47° 225.11° Concrete 0 ft / 0 m 160 ft / 49 m
23R 160 ft / 49 m 7,177 ft / 2,187 m 232.38° 225.02° Asphalt 0 ft / 0 m 160 ft / 49 m

Popular Alternatives